sensor_id;sensor_type;location;lat;lon;timestamp;pressure;altitude;pressure_sealevel;temperature;humidity
74594;BME280;63097;51.872;4.460;2023-05-10T00:01:33;101051.75;;;11.15;100.00
74594;BME280;63097;51.872;4.460;2023-05-10T00:03:58;101050.66;;;11.17;100.00
74594;BME280;63097;51.872;4.460;2023-05-10T00:06:23;101056.50;;;11.32;100.00
74594;BME280;63097;51.872;4.460;2023-05-10T00:08:49;101038.44;;;11.67;100.00
74594;BME280;63097;51.872;4.460;2023-05-10T00:11:14;101051.44;;;11.78;100.00
74594;BME280;63097;51.872;4.460;2023-05-10T00:13:40;101043.78;;;11.90;100.00
74594;BME280;63097;51.872;4.460;2023-05-10T00:16:05;101046.97;;;11.77;100.00
74594;BME280;63097;51.872;4.460;2023-05-10T00:18:31;101043.59;;;11.75;100.00
74594;BME280;63097;51.872;4.460;2023-05-10T00:20:56;101043.00;;;11.73;100.00
74594;BME280;63097;51.872;4.460;2023-05-10T00:23:21;101042.06;;;11.68;100.00
74594;BME280;63097;51.872;4.460;2023-05-10T00:25:46;101047.72;;;11.73;100.00
74594;BME280;63097;51.872;4.460;2023-05-10T00:28:12;101043.50;;;11.70;100.00
74594;BME280;63097;51.872;4.460;2023-05-10T00:30:37;101042.97;;;11.90;100.00
74594;BME280;63097;51.872;4.460;2023-05-10T00:33:02;101043.41;;;11.82;100.00
74594;BME280;63097;51.872;4.460;2023-05-10T00:35:28;101040.31;;;12.00;100.00
74594;BME280;63097;51.872;4.460;2023-05-10T00:37:53;101041.28;;;11.89;100.00
74594;BME280;63097;51.872;4.460;2023-05-10T00:40:18;101040.31;;;12.00;100.00
74594;BME280;63097;51.872;4.460;2023-05-10T00:42:44;101047.69;;;11.89;100.00
74594;BME280;63097;51.872;4.460;2023-05-10T00:45:09;101047.09;;;11.87;100.00
74594;BME280;63097;51.872;4.460;2023-05-10T00:47:34;101051.34;;;11.90;100.00
74594;BME280;63097;51.872;4.460;2023-05-10T00:50:00;101055.47;;;11.87;100.00
74594;BME280;63097;51.872;4.460;2023-05-10T00:52:29;101060.53;;;11.90;100.00
74594;BME280;63097;51.872;4.460;2023-05-10T00:54:55;101066.19;;;11.95;100.00
74594;BME280;63097;51.872;4.460;2023-05-10T00:57:21;101054.63;;;11.87;100.00
74594;BME280;63097;51.872;4.460;2023-05-10T00:59:47;101060.44;;;11.85;100.00
74594;BME280;63097;51.872;4.460;2023-05-10T01:02:13;101058.91;;;11.94;100.00
74594;BME280;63097;51.872;4.460;2023-05-10T01:04:38;101054.84;;;12.02;100.00
74594;BME280;63097;51.872;4.460;2023-05-10T01:07:03;101066.16;;;12.12;100.00
74594;BME280;63097;51.872;4.460;2023-05-10T01:09:29;101073.34;;;12.08;100.00
74594;BME280;63097;51.872;4.460;2023-05-10T01:11:54;101068.03;;;12.06;100.00
74594;BME280;63097;51.872;4.460;2023-05-10T01:14:20;101067.88;;;11.96;100.00
74594;BME280;63097;51.872;4.460;2023-05-10T01:16:47;101061.94;;;12.09;100.00
74594;BME280;63097;51.872;4.460;2023-05-10T01:19:24;101065.19;;;12.23;100.00
74594;BME280;63097;51.872;4.460;2023-05-10T01:30:05;101074.91;;;12.21;100.00
74594;BME280;63097;51.872;4.460;2023-05-10T01:32:56;101071.91;;;12.27;100.00
74594;BME280;63097;51.872;4.460;2023-05-10T01:35:39;101082.88;;;12.12;100.00
74594;BME280;63097;51.872;4.460;2023-05-10T01:38:18;101080.59;;;12.09;100.00
74594;BME280;63097;51.872;4.460;2023-05-10T01:41:20;101084.75;;;12.06;100.00
74594;BME280;63097;51.872;4.460;2023-05-10T01:46:40;101082.78;;;12.07;100.00
74594;BME280;63097;51.872;4.460;2023-05-10T01:49:09;101081.19;;;12.33;100.00
74594;BME280;63097;51.872;4.460;2023-05-10T01:51:45;101087.25;;;12.25;100.00
74594;BME280;63097;51.872;4.460;2023-05-10T01:54:13;101086.53;;;12.34;100.00
74594;BME280;63097;51.872;4.460;2023-05-10T01:56:39;101083.66;;;12.29;100.00
74594;BME280;63097;51.872;4.460;2023-05-10T01:59:15;101093.78;;;12.35;100.00
74594;BME280;63097;51.872;4.460;2023-05-10T02:01:42;101088.59;;;12.22;100.00
74594;BME280;63097;51.872;4.460;2023-05-10T02:04:09;101093.56;;;12.20;100.00
74594;BME280;63097;51.872;4.460;2023-05-10T02:06:37;101096.97;;;12.22;100.00
74594;BME280;63097;51.872;4.460;2023-05-10T02:09:04;101092.72;;;12.20;100.00
74594;BME280;63097;51.872;4.460;2023-05-10T02:11:31;101088.53;;;12.17;100.00
74594;BME280;63097;51.872;4.460;2023-05-10T02:13:58;101096.69;;;12.24;100.00
74594;BME280;63097;51.872;4.460;2023-05-10T02:16:24;101086.91;;;12.21;100.00
74594;BME280;63097;51.872;4.460;2023-05-10T02:18:52;101087.25;;;12.25;100.00
74594;BME280;63097;51.872;4.460;2023-05-10T02:21:20;101093.56;;;12.20;100.00
74594;BME280;63097;51.872;4.460;2023-05-10T02:23:46;101092.50;;;12.21;100.00
74594;BME280;63097;51.872;4.460;2023-05-10T02:26:13;101096.25;;;12.32;100.00
74594;BME280;63097;51.872;4.460;2023-05-10T02:28:40;101107.59;;;12.25;100.00
74594;BME280;63097;51.872;4.460;2023-05-10T02:31:07;101101.25;;;12.30;100.00
74594;BME280;63097;51.872;4.460;2023-05-10T02:33:33;101104.03;;;12.30;100.00
74594;BME280;63097;51.872;4.460;2023-05-10T02:36:01;101107.84;;;12.24;100.00
74594;BME280;63097;51.872;4.460;2023-05-10T02:38:27;101112.47;;;12.35;100.00
74594;BME280;63097;51.872;4.460;2023-05-10T02:40:54;101103.78;;;12.31;100.00
74594;BME280;63097;51.872;4.460;2023-05-10T02:43:22;101118.56;;;12.32;100.00
74594;BME280;63097;51.872;4.460;2023-05-10T02:45:48;101109.78;;;12.40;100.00
74594;BME280;63097;51.872;4.460;2023-05-10T02:48:14;101116.81;;;12.47;100.00
74594;BME280;63097;51.872;4.460;2023-05-10T02:50:43;101118.59;;;12.53;100.00
74594;BME280;63097;51.872;4.460;2023-05-10T02:53:13;101119.44;;;12.32;100.00
74594;BME280;63097;51.872;4.460;2023-05-10T02:55:40;101117.47;;;12.33;100.00
74594;BME280;63097;51.872;4.460;2023-05-10T02:58:07;101115.34;;;12.40;100.00
74594;BME280;63097;51.872;4.460;2023-05-10T03:00:32;101117.09;;;12.46;100.00
74594;BME280;63097;51.872;4.460;2023-05-10T03:02:58;101112.88;;;12.43;100.00
74594;BME280;63097;51.872;4.460;2023-05-10T03:05:23;101116.44;;;12.39;100.00
74594;BME280;63097;51.872;4.460;2023-05-10T03:07:48;101116.25;;;12.45;100.00
74594;BME280;63097;51.872;4.460;2023-05-10T03:10:14;101115.91;;;12.42;100.00
74594;BME280;63097;51.872;4.460;2023-05-10T03:13:06;101119.44;;;12.54;100.00
74594;BME280;63097;51.872;4.460;2023-05-10T03:16:01;101119.13;;;12.50;100.00
74594;BME280;63097;51.872;4.460;2023-05-10T03:21:10;101120.66;;;12.41;100.00
74594;BME280;63097;51.872;4.460;2023-05-10T03:23:41;101118.06;;;12.35;100.00
74594;BME280;63097;51.872;4.460;2023-05-10T03:26:08;101123.31;;;12.31;100.00
74594;BME280;63097;51.872;4.460;2023-05-10T03:28:35;101113.00;;;12.32;100.00
74594;BME280;63097;51.872;4.460;2023-05-10T03:31:02;101121.78;;;12.24;100.00
74594;BME280;63097;51.872;4.460;2023-05-10T03:33:28;101120.63;;;12.20;100.00
74594;BME280;63097;51.872;4.460;2023-05-10T03:35:53;101117.59;;;12.21;100.00
74594;BME280;63097;51.872;4.460;2023-05-10T03:38:19;101124.84;;;12.22;100.00
74594;BME280;63097;51.872;4.460;2023-05-10T03:40:44;101122.13;;;12.27;100.00
74594;BME280;63097;51.872;4.460;2023-05-10T03:43:09;101115.81;;;12.15;100.00
74594;BME280;63097;51.872;4.460;2023-05-10T03:45:35;101123.34;;;12.14;100.00
74594;BME280;63097;51.872;4.460;2023-05-10T03:48:00;101121.34;;;12.10;100.00
74594;BME280;63097;51.872;4.460;2023-05-10T03:50:25;101127.84;;;12.16;100.00
74594;BME280;63097;51.872;4.460;2023-05-10T03:52:51;101125.38;;;12.19;100.00
74594;BME280;63097;51.872;4.460;2023-05-10T03:55:16;101125.88;;;12.16;100.00
74594;BME280;63097;51.872;4.460;2023-05-10T03:57:42;101134.81;;;12.18;100.00
74594;BME280;63097;51.872;4.460;2023-05-10T04:00:07;101144.00;;;12.35;100.00
74594;BME280;63097;51.872;4.460;2023-05-10T04:02:33;101139.53;;;12.34;100.00
74594;BME280;63097;51.872;4.460;2023-05-10T04:04:58;101135.69;;;12.40;100.00
74594;BME280;63097;51.872;4.460;2023-05-10T04:07:24;101138.69;;;12.34;100.00
74594;BME280;63097;51.872;4.460;2023-05-10T04:09:49;101140.56;;;12.28;100.00
74594;BME280;63097;51.872;4.460;2023-05-10T04:12:14;101135.97;;;12.39;100.00
74594;BME280;63097;51.872;4.460;2023-05-10T04:14:40;101145.44;;;12.38;100.00
74594;BME280;63097;51.872;4.460;2023-05-10T04:17:05;101149.00;;;12.33;100.00
74594;BME280;63097;51.872;4.460;2023-05-10T04:19:31;101151.84;;;12.38;100.00
74594;BME280;63097;51.872;4.460;2023-05-10T04:21:56;101148.47;;;12.36;100.00
74594;BME280;63097;51.872;4.460;2023-05-10T04:24:22;101145.81;;;12.25;100.00
74594;BME280;63097;51.872;4.460;2023-05-10T04:26:47;101147.50;;;12.26;100.00
74594;BME280;63097;51.872;4.460;2023-05-10T04:29:12;101146.63;;;12.25;100.00
74594;BME280;63097;51.872;4.460;2023-05-10T04:31:38;101136.50;;;12.36;100.00
74594;BME280;63097;51.872;4.460;2023-05-10T04:34:03;101141.88;;;12.42;100.00
74594;BME280;63097;51.872;4.460;2023-05-10T04:36:28;101141.91;;;12.26;100.00
74594;BME280;63097;51.872;4.460;2023-05-10T04:38:54;101145.97;;;12.18;100.00
74594;BME280;63097;51.872;4.460;2023-05-10T04:41:19;101153.53;;;12.18;100.00
74594;BME280;63097;51.872;4.460;2023-05-10T04:43:44;101149.97;;;12.44;100.00
74594;BME280;63097;51.872;4.460;2023-05-10T04:46:10;101158.63;;;12.42;100.00
74594;BME280;63097;51.872;4.460;2023-05-10T04:48:35;101158.69;;;12.47;100.00
74594;BME280;63097;51.872;4.460;2023-05-10T04:51:00;101163.28;;;12.37;100.00
74594;BME280;63097;51.872;4.460;2023-05-10T04:53:26;101163.28;;;12.37;100.00
74594;BME280;63097;51.872;4.460;2023-05-10T04:55:51;101172.16;;;12.34;100.00
74594;BME280;63097;51.872;4.460;2023-05-10T04:58:16;101168.81;;;12.15;100.00
74594;BME280;63097;51.872;4.460;2023-05-10T05:00:42;101178.19;;;12.09;100.00
74594;BME280;63097;51.872;4.460;2023-05-10T05:03:07;101174.91;;;12.12;100.00
74594;BME280;63097;51.872;4.460;2023-05-10T05:05:32;101183.50;;;12.10;100.00
74594;BME280;63097;51.872;4.460;2023-05-10T05:07:58;101174.97;;;12.17;100.00
74594;BME280;63097;51.872;4.460;2023-05-10T05:10:23;101182.44;;;12.11;100.00
74594;BME280;63097;51.872;4.460;2023-05-10T05:12:48;101193.50;;;12.06;100.00
74594;BME280;63097;51.872;4.460;2023-05-10T05:15:14;101195.09;;;12.02;100.00
74594;BME280;63097;51.872;4.460;2023-05-10T05:17:39;101193.06;;;11.98;100.00
74594;BME280;63097;51.872;4.460;2023-05-10T05:20:05;101194.44;;;11.95;100.00
74594;BME280;63097;51.872;4.460;2023-05-10T05:22:30;101195.44;;;12.06;100.00
74594;BME280;63097;51.872;4.460;2023-05-10T05:24:56;101198.75;;;12.03;100.00
74594;BME280;63097;51.872;4.460;2023-05-10T05:27:22;101202.63;;;12.02;100.00
74594;BME280;63097;51.872;4.460;2023-05-10T05:29:47;101201.53;;;12.03;100.00
74594;BME280;63097;51.872;4.460;2023-05-10T05:32:13;101205.47;;;12.07;100.00
74594;BME280;63097;51.872;4.460;2023-05-10T05:34:38;101207.34;;;12.01;100.00
74594;BME280;63097;51.872;4.460;2023-05-10T05:37:03;101204.81;;;12.00;100.00
74594;BME280;63097;51.872;4.460;2023-05-10T05:39:29;101210.03;;;12.13;100.00
74594;BME280;63097;51.872;4.460;2023-05-10T05:41:54;101204.47;;;12.30;100.00
74594;BME280;63097;51.872;4.460;2023-05-10T05:44:19;101206.66;;;12.28;100.00
74594;BME280;63097;51.872;4.460;2023-05-10T05:46:45;101201.91;;;12.45;100.00
74594;BME280;63097;51.872;4.460;2023-05-10T05:49:10;101209.09;;;12.41;100.00
74594;BME280;63097;51.872;4.460;2023-05-10T05:51:35;101207.28;;;12.51;100.00
74594;BME280;63097;51.872;4.460;2023-05-10T05:54:01;101212.41;;;12.38;100.00
74594;BME280;63097;51.872;4.460;2023-05-10T05:56:26;101225.50;;;12.37;100.00
74594;BME280;63097;51.872;4.460;2023-05-10T05:58:51;101217.53;;;12.46;100.00
74594;BME280;63097;51.872;4.460;2023-05-10T06:01:17;101214.94;;;12.39;100.00
74594;BME280;63097;51.872;4.460;2023-05-10T06:03:42;101226.97;;;12.23;100.00
74594;BME280;63097;51.872;4.460;2023-05-10T06:06:07;101220.25;;;12.41;100.00
74594;BME280;63097;51.872;4.460;2023-05-10T06:08:33;101228.63;;;12.41;100.00
74594;BME280;63097;51.872;4.460;2023-05-10T06:10:58;101235.16;;;12.30;100.00
74594;BME280;63097;51.872;4.460;2023-05-10T06:13:23;101228.72;;;12.29;100.00
74594;BME280;63097;51.872;4.460;2023-05-10T06:15:49;101230.22;;;12.37;100.00
74594;BME280;63097;51.872;4.460;2023-05-10T06:18:14;101227.19;;;12.38;100.00
74594;BME280;63097;51.872;4.460;2023-05-10T06:20:41;101236.06;;;12.52;100.00
74594;BME280;63097;51.872;4.460;2023-05-10T06:23:06;101234.25;;;12.62;100.00
74594;BME280;63097;51.872;4.460;2023-05-10T06:25:31;101241.00;;;12.66;99.75
74594;BME280;63097;51.872;4.460;2023-05-10T06:27:57;101235.03;;;12.58;100.00
74594;BME280;63097;51.872;4.460;2023-05-10T06:30:23;101233.41;;;12.62;100.00
74594;BME280;63097;51.872;4.460;2023-05-10T06:32:48;101235.94;;;12.63;100.00
74594;BME280;63097;51.872;4.460;2023-05-10T06:35:14;101247.16;;;12.85;100.00
74594;BME280;63097;51.872;4.460;2023-05-10T06:37:39;101239.47;;;12.75;100.00
74594;BME280;63097;51.872;4.460;2023-05-10T06:40:05;101245.06;;;12.75;100.00
74594;BME280;63097;51.872;4.460;2023-05-10T06:42:31;101241.66;;;12.73;100.00
74594;BME280;63097;51.872;4.460;2023-05-10T06:44:56;101253.81;;;12.84;100.00
74594;BME280;63097;51.872;4.460;2023-05-10T06:47:21;101253.75;;;12.79;100.00
74594;BME280;63097;51.872;4.460;2023-05-10T06:49:47;101252.91;;;12.78;100.00
74594;BME280;63097;51.872;4.460;2023-05-10T06:52:12;101242.22;;;12.92;99.45
74594;BME280;63097;51.872;4.460;2023-05-10T06:54:37;101248.22;;;12.84;100.00
74594;BME280;63097;51.872;4.460;2023-05-10T06:57:03;101248.97;;;12.96;100.00
74594;BME280;63097;51.872;4.460;2023-05-10T06:59:28;101245.88;;;13.14;98.81
74594;BME280;63097;51.872;4.460;2023-05-10T07:01:53;101248.34;;;13.32;97.39
74594;BME280;63097;51.872;4.460;2023-05-10T07:04:19;101259.56;;;13.37;97.15
74594;BME280;63097;51.872;4.460;2023-05-10T07:06:44;101257.41;;;13.44;97.00
74594;BME280;63097;51.872;4.460;2023-05-10T07:09:09;101255.06;;;13.31;97.46
74594;BME280;63097;51.872;4.460;2023-05-10T07:11:35;101266.56;;;13.35;96.67
74594;BME280;63097;51.872;4.460;2023-05-10T07:14:00;101258.63;;;13.27;96.94
74594;BME280;63097;51.872;4.460;2023-05-10T07:16:25;101272.25;;;13.23;97.98
74594;BME280;63097;51.872;4.460;2023-05-10T07:18:51;101272.84;;;13.03;98.63
74594;BME280;63097;51.872;4.460;2023-05-10T07:21:16;101275.72;;;13.08;98.61
74594;BME280;63097;51.872;4.460;2023-05-10T07:23:41;101276.09;;;13.39;96.92
74594;BME280;63097;51.872;4.460;2023-05-10T07:26:07;101283.47;;;13.50;95.77
74594;BME280;63097;51.872;4.460;2023-05-10T07:28:32;101280.00;;;13.16;98.24
74594;BME280;63097;51.872;4.460;2023-05-10T07:30:57;101279.41;;;13.14;97.47
74594;BME280;63097;51.872;4.460;2023-05-10T07:33:23;101281.63;;;13.34;96.42
74594;BME280;63097;51.872;4.460;2023-05-10T07:35:49;101282.84;;;13.43;96.76
74594;BME280;63097;51.872;4.460;2023-05-10T07:38:15;101277.41;;;13.31;97.20
74594;BME280;63097;51.872;4.460;2023-05-10T07:40:40;101279.94;;;13.33;98.19
74594;BME280;63097;51.872;4.460;2023-05-10T07:43:06;101280.00;;;13.38;98.05
74594;BME280;63097;51.872;4.460;2023-05-10T07:45:31;101281.44;;;13.40;97.84
74594;BME280;63097;51.872;4.460;2023-05-10T07:47:56;101278.63;;;13.40;97.44
74594;BME280;63097;51.872;4.460;2023-05-10T07:50:21;101274.53;;;13.48;95.77
74594;BME280;63097;51.872;4.460;2023-05-10T07:52:47;101284.91;;;13.52;95.57
74594;BME280;63097;51.872;4.460;2023-05-10T07:55:12;101278.50;;;13.78;93.42
74594;BME280;63097;51.872;4.460;2023-05-10T07:57:38;101278.88;;;13.39;96.06
74594;BME280;63097;51.872;4.460;2023-05-10T08:00:03;101283.56;;;13.33;96.28
74594;BME280;63097;51.872;4.460;2023-05-10T08:02:29;101291.44;;;13.15;97.78
74594;BME280;63097;51.872;4.460;2023-05-10T08:04:54;101290.59;;;13.36;96.28
74594;BME280;63097;51.872;4.460;2023-05-10T08:07:19;101292.53;;;12.97;98.26
74594;BME280;63097;51.872;4.460;2023-05-10T08:09:45;101298.19;;;13.02;99.01
74594;BME280;63097;51.872;4.460;2023-05-10T08:12:10;101295.25;;;12.92;98.98
74594;BME280;63097;51.872;4.460;2023-05-10T08:14:35;101294.22;;;13.15;98.48
74594;BME280;63097;51.872;4.460;2023-05-10T08:17:00;101294.22;;;13.15;98.82
74594;BME280;63097;51.872;4.460;2023-05-10T08:19:26;101305.72;;;13.18;97.46
74594;BME280;63097;51.872;4.460;2023-05-10T08:21:52;101306.56;;;13.19;98.16
74594;BME280;63097;51.872;4.460;2023-05-10T08:24:17;101305.91;;;13.11;98.80
74594;BME280;63097;51.872;4.460;2023-05-10T08:26:42;101315.47;;;13.37;96.33
74594;BME280;63097;51.872;4.460;2023-05-10T08:29:07;101315.34;;;13.27;97.33
74594;BME280;63097;51.872;4.460;2023-05-10T08:31:33;101322.56;;;13.23;97.58
74594;BME280;63097;51.872;4.460;2023-05-10T08:33:58;101320.66;;;13.29;96.33
74594;BME280;63097;51.872;4.460;2023-05-10T08:36:23;101320.41;;;13.30;95.29
74594;BME280;63097;51.872;4.460;2023-05-10T08:38:53;101314.81;;;13.08;96.49
74594;BME280;63097;51.872;4.460;2023-05-10T08:41:22;101322.16;;;13.15;97.52
74594;BME280;63097;51.872;4.460;2023-05-10T08:43:50;101328.72;;;13.25;96.82
74594;BME280;63097;51.872;4.460;2023-05-10T08:46:17;101334.59;;;13.24;98.15
74594;BME280;63097;51.872;4.460;2023-05-10T08:48:44;101330.41;;;13.26;97.31
74594;BME280;63097;51.872;4.460;2023-05-10T08:51:15;101331.84;;;13.50;96.03
74594;BME280;63097;51.872;4.460;2023-05-10T08:53:42;101341.47;;;13.59;96.07
74594;BME280;63097;51.872;4.460;2023-05-10T08:56:08;101350.13;;;13.58;95.32
74594;BME280;63097;51.872;4.460;2023-05-10T08:58:34;101349.13;;;13.69;94.84
74594;BME280;63097;51.872;4.460;2023-05-10T09:01:00;101350.00;;;13.96;92.45
74594;BME280;63097;51.872;4.460;2023-05-10T09:03:26;101341.97;;;13.78;92.64
74594;BME280;63097;51.872;4.460;2023-05-10T09:05:51;101346.56;;;13.89;92.79
74594;BME280;63097;51.872;4.460;2023-05-10T09:08:17;101347.22;;;13.96;93.30
74594;BME280;63097;51.872;4.460;2023-05-10T09:10:44;101348.53;;;13.88;94.05
74594;BME280;63097;51.872;4.460;2023-05-10T09:13:10;101355.91;;;13.99;93.91
74594;BME280;63097;51.872;4.460;2023-05-10T09:15:36;101352.72;;;13.86;93.74
74594;BME280;63097;51.872;4.460;2023-05-10T09:18:01;101356.22;;;14.03;92.42
74594;BME280;63097;51.872;4.460;2023-05-10T09:20:26;101358.53;;;13.84;93.06
74594;BME280;63097;51.872;4.460;2023-05-10T09:22:51;101364.88;;;13.75;93.34
74594;BME280;63097;51.872;4.460;2023-05-10T09:25:17;101363.56;;;13.61;93.03
74594;BME280;63097;51.872;4.460;2023-05-10T09:27:47;101365.50;;;13.39;96.53
74594;BME280;63097;51.872;4.460;2023-05-10T09:30:18;101360.38;;;13.52;95.26
74594;BME280;63097;51.872;4.460;2023-05-10T09:32:48;101375.28;;;13.36;95.63
74594;BME280;63097;51.872;4.460;2023-05-10T09:35:16;101370.81;;;13.57;95.02
74594;BME280;63097;51.872;4.460;2023-05-10T09:37:43;101371.63;;;13.57;94.45
74594;BME280;63097;51.872;4.460;2023-05-10T09:40:17;101373.97;;;13.65;93.88
74594;BME280;63097;51.872;4.460;2023-05-10T09:42:57;101377.81;;;13.59;94.23
74594;BME280;63097;51.872;4.460;2023-05-10T09:45:24;101381.97;;;13.19;97.44
74594;BME280;63097;51.872;4.460;2023-05-10T09:47:50;101387.16;;;13.10;97.98
74594;BME280;63097;51.872;4.460;2023-05-10T09:50:15;101384.56;;;13.03;99.49
74594;BME280;63097;51.872;4.460;2023-05-10T09:52:49;101390.63;;;12.84;100.00
74594;BME280;63097;51.872;4.460;2023-05-10T09:55:16;101390.72;;;12.89;100.00
74594;BME280;63097;51.872;4.460;2023-05-10T09:57:41;101386.91;;;12.78;100.00
74594;BME280;63097;51.872;4.460;2023-05-10T10:00:07;101382.84;;;12.86;100.00
74594;BME280;63097;51.872;4.460;2023-05-10T10:02:33;101400.25;;;12.93;100.00
74594;BME280;63097;51.872;4.460;2023-05-10T10:05:00;101392.81;;;12.98;100.00
74594;BME280;63097;51.872;4.460;2023-05-10T10:07:26;101397.91;;;13.01;100.00
74594;BME280;63097;51.872;4.460;2023-05-10T10:09:53;101389.94;;;12.93;100.00
74594;BME280;63097;51.872;4.460;2023-05-10T10:12:18;101391.41;;;13.13;98.99
74594;BME280;63097;51.872;4.460;2023-05-10T10:14:48;101396.47;;;13.16;98.68
74594;BME280;63097;51.872;4.460;2023-05-10T10:17:13;101397.00;;;13.13;99.83
74594;BME280;63097;51.872;4.460;2023-05-10T10:19:40;101403.41;;;13.13;100.00
74594;BME280;63097;51.872;4.460;2023-05-10T10:22:06;101407.38;;;13.00;100.00
74594;BME280;63097;51.872;4.460;2023-05-10T10:24:31;101409.81;;;12.97;100.00
74594;BME280;63097;51.872;4.460;2023-05-10T10:27:02;101407.22;;;12.90;100.00
74594;BME280;63097;51.872;4.460;2023-05-10T10:29:42;101412.53;;;12.75;100.00
74594;BME280;63097;51.872;4.460;2023-05-10T10:32:25;101416.19;;;12.92;100.00
74594;BME280;63097;51.872;4.460;2023-05-10T10:34:53;101417.78;;;12.88;100.00
74594;BME280;63097;51.872;4.460;2023-05-10T10:37:19;101415.25;;;12.87;100.00
74594;BME280;63097;51.872;4.460;2023-05-10T10:39:48;101413.28;;;12.87;100.00
74594;BME280;63097;51.872;4.460;2023-05-10T10:42:13;101417.44;;;13.01;100.00
74594;BME280;63097;51.872;4.460;2023-05-10T10:44:39;101417.22;;;13.20;99.75
74594;BME280;63097;51.872;4.460;2023-05-10T10:49:37;101421.59;;;13.32;97.72
74594;BME280;63097;51.872;4.460;2023-05-10T10:52:26;101417.69;;;13.33;96.77
74594;BME280;63097;51.872;4.460;2023-05-10T10:54:53;101412.19;;;13.60;95.82
74594;BME280;63097;51.872;4.460;2023-05-10T10:57:19;101420.53;;;13.55;97.98
74594;BME280;63097;51.872;4.460;2023-05-10T10:59:45;101429.88;;;13.87;94.21
74594;BME280;63097;51.872;4.460;2023-05-10T11:02:20;101426.88;;;14.15;92.91
74594;BME280;63097;51.872;4.460;2023-05-10T11:04:55;101421.16;;;14.27;92.46
74594;BME280;63097;51.872;4.460;2023-05-10T11:07:21;101421.94;;;14.49;89.63
74594;BME280;63097;51.872;4.460;2023-05-10T11:09:47;101422.63;;;14.34;91.17
74594;BME280;63097;51.872;4.460;2023-05-10T11:12:12;101419.09;;;14.17;90.45
74594;BME280;63097;51.872;4.460;2023-05-10T11:14:37;101420.72;;;14.13;92.48
74594;BME280;63097;51.872;4.460;2023-05-10T11:17:22;101428.25;;;14.12;92.75
74594;BME280;63097;51.872;4.460;2023-05-10T11:20:08;101428.06;;;13.97;92.69
74594;BME280;63097;51.872;4.460;2023-05-10T11:22:50;101429.03;;;13.86;92.09
74594;BME280;63097;51.872;4.460;2023-05-10T11:25:15;101424.41;;;13.75;92.84
74594;BME280;63097;51.872;4.460;2023-05-10T11:27:41;101438.28;;;13.87;94.54
74594;BME280;63097;51.872;4.460;2023-05-10T11:30:09;101432.88;;;14.02;89.83
74594;BME280;63097;51.872;4.460;2023-05-10T11:32:37;101438.53;;;14.07;91.54
74594;BME280;63097;51.872;4.460;2023-05-10T11:35:10;101443.53;;;14.05;90.65
74594;BME280;63097;51.872;4.460;2023-05-10T11:37:35;101446.09;;;13.85;90.04
74594;BME280;63097;51.872;4.460;2023-05-10T11:40:01;101442.09;;;13.81;90.47
74594;BME280;63097;51.872;4.460;2023-05-10T11:42:29;101441.06;;;13.65;93.07
74594;BME280;63097;51.872;4.460;2023-05-10T11:44:54;101430.38;;;13.79;90.37
74594;BME280;63097;51.872;4.460;2023-05-10T11:47:20;101448.34;;;13.66;91.76
74594;BME280;63097;51.872;4.460;2023-05-10T11:49:46;101449.53;;;13.92;89.37
74594;BME280;63097;51.872;4.460;2023-05-10T11:52:11;101436.53;;;14.02;89.96
74594;BME280;63097;51.872;4.460;2023-05-10T11:54:37;101444.03;;;13.97;90.38
74594;BME280;63097;51.872;4.460;2023-05-10T11:57:03;101437.94;;;14.48;87.07
74594;BME280;63097;51.872;4.460;2023-05-10T11:59:28;101446.75;;;14.67;88.14
74594;BME280;63097;51.872;4.460;2023-05-10T12:01:54;101457.47;;;15.01;86.40
74594;BME280;63097;51.872;4.460;2023-05-10T12:04:19;101453.81;;;14.69;86.65
74594;BME280;63097;51.872;4.460;2023-05-10T12:06:45;101453.91;;;14.79;85.20
74594;BME280;63097;51.872;4.460;2023-05-10T12:09:10;101450.75;;;15.02;85.73
74594;BME280;63097;51.872;4.460;2023-05-10T12:11:39;101458.88;;;15.04;84.18
74594;BME280;63097;51.872;4.460;2023-05-10T12:14:05;101445.84;;;15.20;83.46
74594;BME280;63097;51.872;4.460;2023-05-10T12:16:31;101442.31;;;15.34;85.37
74594;BME280;63097;51.872;4.460;2023-05-10T12:18:57;101449.06;;;15.80;81.14
74594;BME280;63097;51.872;4.460;2023-05-10T12:21:23;101449.84;;;16.32;79.53
74594;BME280;63097;51.872;4.460;2023-05-10T12:23:53;101451.34;;;16.55;81.01
74594;BME280;63097;51.872;4.460;2023-05-10T12:26:24;101447.38;;;16.46;81.24
74594;BME280;63097;51.872;4.460;2023-05-10T12:28:50;101452.44;;;16.54;79.81
74594;BME280;63097;51.872;4.460;2023-05-10T12:31:15;101453.78;;;16.31;78.22
74594;BME280;63097;51.872;4.460;2023-05-10T12:33:42;101448.97;;;16.27;77.32
74594;BME280;63097;51.872;4.460;2023-05-10T12:36:13;101462.25;;;15.84;80.81
74594;BME280;63097;51.872;4.460;2023-05-10T12:38:40;101458.66;;;15.89;83.24
74594;BME280;63097;51.872;4.460;2023-05-10T12:41:13;101450.84;;;15.96;81.24
74594;BME280;63097;51.872;4.460;2023-05-10T12:43:40;101462.53;;;15.83;81.03
74594;BME280;63097;51.872;4.460;2023-05-10T12:46:13;101468.16;;;15.88;81.50
74594;BME280;63097;51.872;4.460;2023-05-10T12:48:40;101460.69;;;15.98;80.44
74594;BME280;63097;51.872;4.460;2023-05-10T12:51:06;101461.69;;;16.44;77.42
74594;BME280;63097;51.872;4.460;2023-05-10T12:53:32;101451.50;;;16.23;81.62
74594;BME280;63097;51.872;4.460;2023-05-10T12:55:57;101459.69;;;16.35;78.20
74594;BME280;63097;51.872;4.460;2023-05-10T12:58:22;101463.97;;;16.47;78.35
74594;BME280;63097;51.872;4.460;2023-05-10T13:00:48;101466.69;;;16.32;80.59